Time;durP1;ratioP1;P1;durP2;ratioP2;P2;SDS_P1;SDS_P2;PMS_P1;PMS_P2;Temp;Humidity;BMP_temperature;BMP_pressure;BME280_temperature;BME280_humidity;BME280_pressure;Samples;Min_cycle;Max_cycle;Signal;HPM_P1;HPM_P2
2021/09/05 00:01:18;;;;;;;14.40;10.02;;;;;;;15.37;62.60;100150.72;10400893;28;20053;-81
2021/09/05 00:06:20;;;;;;;11.65;8.90;;;;;;;15.31;62.66;100147.72;10397750;28;20063;-82
2021/09/05 00:11:22;;;;;;;12.25;8.40;;;;;;;15.36;62.37;100143.78;10398941;28;20145;-82
2021/09/05 00:16:24;;;;;;;14.55;9.07;;;;;;;15.39;62.03;100155.88;10398414;28;20061;-82
2021/09/05 00:21:26;;;;;;;11.85;8.43;;;;;;;15.41;62.24;100152.19;10398435;28;20563;-82
2021/09/05 00:26:31;;;;;;;13.88;8.85;;;;;;;15.36;62.17;100137.69;10398185;28;20057;-82
2021/09/05 00:31:33;;;;;;;14.48;9.95;;;;;;;15.19;62.38;100148.66;10399921;28;20088;-81
2021/09/05 00:36:35;;;;;;;10.68;9.00;;;;;;;15.10;62.41;100150.16;10398924;28;20060;-82
2021/09/05 00:41:37;;;;;;;12.15;9.38;;;;;;;15.22;62.55;100156.34;10405614;28;20223;-82
2021/09/05 00:46:40;;;;;;;15.23;9.35;;;;;;;15.30;62.33;100159.22;10423015;28;20103;-82
2021/09/05 00:51:43;;;;;;;13.02;9.38;;;;;;;15.10;62.82;100162.53;10411740;28;20057;-81
2021/09/05 00:56:45;;;;;;;11.93;9.07;;;;;;;15.18;62.65;100157.53;10397192;28;20049;-82
2021/09/05 01:01:47;;;;;;;13.93;9.15;;;;;;;15.16;62.83;100159.44;10395799;28;20049;-82
2021/09/05 01:06:49;;;;;;;9.93;8.55;;;;;;;15.12;62.96;100155.34;10396745;28;20071;-82
2021/09/05 01:11:51;;;;;;;13.27;9.68;;;;;;;15.09;62.60;100159.03;10396908;28;20167;-82
2021/09/05 01:16:53;;;;;;;13.23;9.95;;;;;;;14.89;62.98;100154.41;10395819;28;20076;-81
2021/09/05 01:21:55;;;;;;;12.13;9.60;;;;;;;14.95;63.19;100156.59;10394929;28;20478;-82
2021/09/05 01:26:57;;;;;;;19.50;9.98;;;;;;;14.83;63.32;100165.41;10394644;28;20057;-82
2021/09/05 01:31:59;;;;;;;11.45;9.50;;;;;;;14.75;63.19;100167.75;10394883;28;20467;-82
2021/09/05 01:37:02;;;;;;;10.82;9.40;;;;;;;14.78;62.91;100180.69;10394606;28;20060;-82
2021/09/05 01:42:03;;;;;;;13.13;9.40;;;;;;;14.65;63.15;100179.06;10394823;28;20065;-82
2021/09/05 01:47:05;;;;;;;11.52;9.30;;;;;;;14.51;63.53;100186.16;10394073;28;20061;-81
2021/09/05 01:52:07;;;;;;;15.23;9.68;;;;;;;14.35;63.71;100187.34;10394068;28;20076;-82
2021/09/05 01:57:09;;;;;;;16.58;10.88;;;;;;;14.25;63.72;100187.13;10397497;28;20080;-81
2021/09/05 02:02:11;;;;;;;13.88;8.98;;;;;;;14.26;64.01;100186.22;10397194;28;20076;-82
2021/09/05 02:07:13;;;;;;;19.63;13.38;;;;;;;14.09;64.25;100183.91;10400997;28;20765;-81
2021/09/05 02:12:15;;;;;;;17.88;10.40;;;;;;;14.04;64.75;100183.41;10400298;28;20089;-82
2021/09/05 02:17:16;;;;;;;15.48;11.07;;;;;;;14.16;64.43;100190.44;10399543;28;20144;-81
2021/09/05 02:22:18;;;;;;;14.50;11.75;;;;;;;14.23;64.11;100185.56;10399170;28;20563;-82
2021/09/05 02:27:20;;;;;;;17.20;10.32;;;;;;;14.19;64.52;100192.84;10399162;28;20153;-82
2021/09/05 02:32:22;;;;;;;14.77;9.50;;;;;;;14.25;63.82;100188.91;10399332;28;20081;-82
2021/09/05 02:37:23;;;;;;;14.13;9.73;;;;;;;14.13;64.06;100189.78;10400470;28;20057;-82
2021/09/05 02:42:25;;;;;;;21.13;13.45;;;;;;;13.93;64.28;100188.56;10400925;28;20487;-82
2021/09/05 02:47:27;;;;;;;15.80;10.88;;;;;;;13.86;64.72;100194.34;10400344;28;20077;-82
2021/09/05 02:52:29;;;;;;;12.73;9.32;;;;;;;13.97;64.23;100197.91;10399087;28;20088;-82
2021/09/05 02:57:31;;;;;;;13.20;10.75;;;;;;;13.96;64.32;100193.63;10399329;28;20085;-82
2021/09/05 03:02:33;;;;;;;14.63;10.60;;;;;;;13.69;64.55;100199.00;10397420;28;20045;-82
2021/09/05 03:07:35;;;;;;;13.40;9.45;;;;;;;13.70;64.63;100192.78;10395564;28;20294;-81
2021/09/05 03:12:37;;;;;;;15.63;11.57;;;;;;;13.80;64.15;100197.41;10405540;28;20049;-82
2021/09/05 03:17:39;;;;;;;14.65;10.68;;;;;;;13.82;64.26;100196.34;10424529;28;20045;-82
2021/09/05 03:22:40;;;;;;;11.43;9.75;;;;;;;13.83;64.27;100202.44;10405110;28;20636;-82
2021/09/05 03:27:42;;;;;;;12.25;8.95;;;;;;;13.76;64.35;100202.88;10410195;28;20057;-82
2021/09/05 03:32:44;;;;;;;14.75;9.70;;;;;;;13.77;63.87;100204.56;10393001;28;20978;-82
2021/09/05 03:37:46;;;;;;;12.48;9.88;;;;;;;13.54;64.18;100212.31;10395395;28;20139;-82
2021/09/05 03:42:47;;;;;;;13.40;9.73;;;;;;;13.47;64.43;100206.66;10392728;28;20150;-82
2021/09/05 03:47:49;;;;;;;12.50;9.50;;;;;;;13.51;64.36;100204.66;10394666;28;20088;-82
2021/09/05 03:52:51;;;;;;;13.25;9.73;;;;;;;13.54;64.65;100207.06;10399378;28;20060;-82
2021/09/05 03:57:53;;;;;;;12.38;9.40;;;;;;;13.54;64.18;100207.91;10398723;28;20721;-81
2021/09/05 04:02:54;;;;;;;12.85;9.18;;;;;;;13.45;64.15;100203.28;10399957;28;20132;-82
2021/09/05 04:13:08;;;;;;;14.95;9.68;;;;;;;13.18;64.69;100206.84;10401310;28;20054;-82
2021/09/05 04:18:10;;;;;;;14.73;10.77;;;;;;;13.11;64.29;100203.78;10399473;28;20058;-82
2021/09/05 04:23:12;;;;;;;15.00;10.00;;;;;;;13.02;64.29;100208.81;10399116;28;20507;-82
2021/09/05 04:28:14;;;;;;;11.60;9.02;;;;;;;13.14;64.40;100208.84;10398045;28;20053;-82
2021/09/05 04:33:15;;;;;;;11.57;8.93;;;;;;;13.15;64.36;100214.94;10398576;28;20111;-82
2021/09/05 04:38:17;;;;;;;11.75;7.70;;;;;;;13.13;64.23;100222.09;10398344;28;20123;-82
2021/09/05 04:43:19;;;;;;;32.90;10.73;;;;;;;12.93;63.70;100223.38;10398463;28;20132;-82
2021/09/05 04:48:21;;;;;;;16.63;8.38;;;;;;;12.60;64.80;100225.53;10398175;28;20123;-82
2021/09/05 04:53:22;;;;;;;11.90;9.23;;;;;;;12.43;65.00;100233.63;10397855;28;20092;-82
2021/09/05 04:58:24;;;;;;;10.70;8.63;;;;;;;12.59;65.02;100243.06;10396145;28;20116;-82
2021/09/05 05:03:26;;;;;;;16.10;9.63;;;;;;;12.69;64.88;100244.16;10398357;28;20077;-82
2021/09/05 05:08:50;;;;;;;11.27;9.05;;;;;;;12.73;65.03;100250.06;10396722;28;20499;-82
2021/09/05 05:13:52;;;;;;;9.52;8.05;;;;;;;12.99;64.57;100246.59;10397266;28;20159;-82
2021/09/05 05:18:54;;;;;;;11.52;9.18;;;;;;;13.08;63.91;100247.78;10397043;28;20065;-81
2021/09/05 05:23:56;;;;;;;12.45;9.57;;;;;;;12.94;63.85;100259.19;10397249;28;20076;-82
2021/09/05 05:28:58;;;;;;;11.38;8.15;;;;;;;12.89;64.11;100261.25;10412939;28;20152;-82
2021/09/05 05:34:00;;;;;;;12.10;8.68;;;;;;;13.03;63.78;100269.09;10397837;28;20076;-82
2021/09/05 05:39:02;;;;;;;9.93;7.95;;;;;;;13.27;63.65;100269.31;10397241;28;20168;-82
2021/09/05 05:44:04;;;;;;;13.25;8.55;;;;;;;13.51;63.21;100270.34;10401932;28;20057;-82
2021/09/05 05:49:10;;;;;;;13.30;9.65;;;;;;;13.38;63.18;100272.91;10418643;28;20050;-82
2021/09/05 05:54:15;;;;;;;10.82;8.18;;;;;;;13.53;63.43;100273.72;10398469;28;20049;-82
2021/09/05 05:59:17;;;;;;;10.05;8.05;;;;;;;13.82;63.17;100269.94;10396957;28;20111;-82
2021/09/05 06:04:19;;;;;;;11.82;9.25;;;;;;;14.07;62.45;100280.50;10396817;28;20472;-82
2021/09/05 06:09:21;;;;;;;12.73;8.93;;;;;;;14.31;62.10;100281.41;10394998;28;20084;-82
2021/09/05 06:14:23;;;;;;;11.85;8.50;;;;;;;14.51;61.72;100278.25;10394548;28;20502;-82
2021/09/05 06:19:24;;;;;;;9.05;6.00;;;;;;;14.58;61.56;100287.44;10393479;28;20160;-82
2021/09/05 06:24:26;;;;;;;6.93;4.93;;;;;;;14.56;61.48;100276.16;10395993;28;20061;-82
2021/09/05 06:29:28;;;;;;;10.38;6.50;;;;;;;14.61;61.29;100285.53;10393338;28;20130;-82
2021/09/05 06:34:30;;;;;;;9.40;6.88;;;;;;;14.70;61.47;100290.13;10394231;28;20144;-82
2021/09/05 06:39:31;;;;;;;12.13;7.93;;;;;;;14.84;61.44;100293.47;10395990;28;20061;-82
2021/09/05 06:44:33;;;;;;;16.25;8.88;;;;;;;15.08;61.16;100291.69;10410542;28;20144;-82
2021/09/05 06:49:35;;;;;;;11.60;8.73;;;;;;;15.22;61.23;100288.06;10394636;28;20058;-81
2021/09/05 06:54:37;;;;;;;17.08;10.23;;;;;;;15.26;61.51;100289.53;10391667;28;20558;-82
2021/09/05 06:59:39;;;;;;;19.20;10.90;;;;;;;15.30;61.55;100288.34;10389197;28;20116;-82
2021/09/05 07:04:40;;;;;;;20.48;10.60;;;;;;;15.47;61.22;100287.94;10392043;28;20096;-82
2021/09/05 07:09:46;;;;;;;18.83;11.55;;;;;;;15.56;60.94;100289.06;10391687;28;20494;-82
2021/09/05 07:14:48;;;;;;;18.23;10.48;;;;;;;15.71;60.80;100291.44;10393509;28;20076;-82
2021/09/05 07:19:50;;;;;;;17.80;9.85;;;;;;;15.91;60.41;100293.41;10394217;28;20466;-81
2021/09/05 07:24:51;;;;;;;18.77;10.52;;;;;;;16.14;59.92;100296.91;10399729;28;20157;-81
2021/09/05 07:29:53;;;;;;;18.70;11.65;;;;;;;16.13;59.89;100297.84;10398667;28;20060;-81
2021/09/05 07:34:55;;;;;;;22.55;10.88;;;;;;;16.17;59.51;100305.44;10397558;28;20065;-81
2021/09/05 07:40:00;;;;;;;20.40;11.95;;;;;;;16.53;59.07;100307.03;10397608;28;20069;-81
2021/09/05 07:45:03;;;;;;;16.60;9.43;;;;;;;17.27;56.95;100310.75;10390773;28;20049;-81
2021/09/05 07:50:07;;;;;;;18.17;10.68;;;;;;;17.84;55.98;100304.19;10397782;28;20058;-81
2021/09/05 07:55:10;;;;;;;17.25;10.13;;;;;;;18.20;54.95;100304.72;10398461;28;20064;-81
2021/09/05 08:00:12;;;;;;;16.80;10.75;;;;;;;18.41;54.29;100303.72;10398387;28;20081;-81
2021/09/05 08:05:14;;;;;;;16.73;10.27;;;;;;;19.20;53.33;100300.22;10396565;28;20464;-81
2021/09/05 08:10:16;;;;;;;13.98;9.85;;;;;;;19.55;52.26;100306.81;10393976;28;20135;-80
2021/09/05 08:15:18;;;;;;;16.85;10.57;;;;;;;20.17;50.79;100307.19;10397220;28;20569;-81
2021/09/05 08:20:20;;;;;;;19.33;10.20;;;;;;;20.18;50.08;100306.19;10420043;28;20057;-81
2021/09/05 08:25:22;;;;;;;16.67;9.52;;;;;;;20.28;49.84;100307.00;10399451;28;20139;-80
2021/09/05 08:30:24;;;;;;;15.43;9.68;;;;;;;20.53;49.62;100306.38;10398181;28;20111;-80
2021/09/05 08:35:26;;;;;;;17.27;9.95;;;;;;;20.72;48.75;100310.81;10396862;28;20053;-80
2021/09/05 08:40:28;;;;;;;13.55;8.93;;;;;;;21.12;48.37;100313.09;10397703;28;20080;-81
2021/09/05 08:45:30;;;;;;;18.08;10.60;;;;;;;21.08;47.86;100321.38;10398883;28;20232;-80
2021/09/05 08:50:33;;;;;;;14.93;9.68;;;;;;;21.15;47.89;100312.81;10397026;28;20068;-80
2021/09/05 08:55:35;;;;;;;17.60;10.38;;;;;;;21.56;46.90;100312.25;10412226;28;20067;-80
2021/09/05 09:00:37;;;;;;;21.20;11.27;;;;;;;21.63;46.44;100316.81;10396187;28;20084;-80
2021/09/05 09:05:41;;;;;;;17.73;10.10;;;;;;;22.08;45.69;100314.06;10396701;28;20064;-80
2021/09/05 09:10:50;;;;;;;14.63;9.65;;;;;;;21.97;46.18;100316.06;10396623;28;20139;-81
2021/09/05 09:15:53;;;;;;;13.02;9.32;;;;;;;22.00;45.81;100310.47;10394696;28;21103;-81
2021/09/05 09:20:57;;;;;;;15.05;9.50;;;;;;;22.60;45.04;100314.84;10396005;28;20058;-81
2021/09/05 09:26:01;;;;;;;15.30;10.02;;;;;;;22.62;43.98;100313.69;10397552;28;20071;-82
2021/09/05 09:31:16;;;;;;;18.30;9.63;;;;;;;22.69;43.96;100317.41;10396018;28;20061;-82
2021/09/05 09:36:29;;;;;;;14.73;9.73;;;;;;;22.77;43.37;100308.63;10394107;28;20060;-81
2021/09/05 09:41:45;;;;;;;12.68;8.60;;;;;;;22.50;44.54;100309.66;10395183;28;20138;-81
2021/09/05 09:46:46;;;;;;;16.33;9.57;;;;;;;22.86;44.60;100304.19;10394868;28;20119;-81
2021/09/05 09:51:58;;;;;;;14.40;9.65;;;;;;;23.07;42.49;100301.91;10396820;28;20085;-81
2021/09/05 09:57:00;;;;;;;11.57;8.07;;;;;;;23.23;43.69;100302.78;10394656;28;20487;-81
2021/09/05 10:02:03;;;;;;;12.30;8.35;;;;;;;23.44;42.93;100294.34;10396569;28;20069;-81
2021/09/05 10:07:05;;;;;;;17.17;10.85;;;;;;;23.88;42.70;100293.00;10396498;28;20065;-81
2021/09/05 10:12:08;;;;;;;13.00;8.07;;;;;;;24.24;42.37;100291.69;10396388;28;20052;-81
2021/09/05 10:17:11;;;;;;;12.25;7.90;;;;;;;24.14;41.91;100288.31;10397249;28;20161;-82
2021/09/05 10:22:18;;;;;;;10.40;6.82;;;;;;;24.15;41.83;100287.34;10394365;28;20085;-81
2021/09/05 10:27:35;;;;;;;12.65;7.10;;;;;;;23.91;40.83;100284.66;10410206;28;20722;-81
2021/09/05 10:32:47;;;;;;;10.88;8.07;;;;;;;23.81;41.23;100286.69;10396685;28;20089;-81
2021/09/05 10:37:49;;;;;;;11.52;7.95;;;;;;;23.79;42.09;100287.84;10395267;28;20080;-81
2021/09/05 10:42:53;;;;;;;12.25;8.45;;;;;;;23.98;41.92;100285.66;10396964;28;20061;-82
2021/09/05 10:47:55;;;;;;;12.35;8.57;;;;;;;23.72;42.02;100282.34;10405710;28;20065;-81
2021/09/05 10:53:16;;;;;;;16.20;8.65;;;;;;;23.59;41.75;100270.50;10404159;28;20521;-81
2021/09/05 10:58:18;;;;;;;13.27;7.63;;;;;;;23.59;42.02;100268.66;10398701;28;20155;-82
2021/09/05 11:03:19;;;;;;;10.63;7.25;;;;;;;23.62;42.63;100265.63;10404186;28;20116;-81
2021/09/05 11:08:24;;;;;;;11.73;7.00;;;;;;;23.56;42.05;100263.66;10403017;28;20068;-81
2021/09/05 11:14:00;;;;;;;11.32;7.32;;;;;;;23.69;42.42;100260.47;10402929;28;20439;-81
2021/09/05 11:19:02;;;;;;;10.93;6.55;;;;;;;23.85;42.19;100263.97;10416601;28;20061;-81
2021/09/05 11:24:04;;;;;;;9.95;6.65;;;;;;;23.92;41.35;100254.25;10400063;28;20111;-81
2021/09/05 11:29:22;;;;;;;9.73;6.63;;;;;;;24.16;40.79;100251.56;10401822;28;20097;-81
2021/09/05 11:34:27;;;;;;;10.60;7.10;;;;;;;24.31;41.29;100245.53;10402280;28;20057;-82
2021/09/05 11:39:29;;;;;;;8.85;5.97;;;;;;;24.34;40.58;100248.69;10401704;28;20123;-81
2021/09/05 11:44:37;;;;;;;8.73;6.60;;;;;;;24.49;40.45;100254.97;10400836;28;20085;-81
2021/09/05 11:49:53;;;;;;;10.52;6.22;;;;;;;24.61;39.05;100245.56;10401697;28;20097;-81
2021/09/05 11:55:03;;;;;;;9.15;5.82;;;;;;;24.84;38.60;100251.00;10399656;28;20108;-81
2021/09/05 12:00:07;;;;;;;9.68;5.85;;;;;;;25.04;38.92;100244.19;10400406;28;20061;-81
2021/09/05 12:05:11;;;;;;;7.57;5.65;;;;;;;25.03;38.73;100242.53;10400465;28;20132;-81
2021/09/05 12:10:18;;;;;;;10.63;5.80;;;;;;;25.21;38.96;100240.41;10396828;28;20503;-81
2021/09/05 12:15:21;;;;;;;8.52;4.72;;;;;;;25.24;37.85;100245.44;10397936;28;20115;-81
2021/09/05 12:20:24;;;;;;;6.85;4.57;;;;;;;25.43;36.43;100239.59;10399376;28;20093;-81
2021/09/05 12:25:32;;;;;;;6.50;4.60;;;;;;;25.57;36.51;100241.50;10397975;28;20096;-81
2021/09/05 12:30:38;;;;;;;8.27;4.68;;;;;;;25.36;35.10;100249.38;10398596;28;20057;-81
2021/09/05 12:35:43;;;;;;;8.02;4.40;;;;;;;25.45;34.18;100236.75;10398790;28;20460;-81
2021/09/05 12:40:46;;;;;;;6.57;4.15;;;;;;;25.44;33.88;100237.78;10398633;28;20155;-82
2021/09/05 12:45:55;;;;;;;6.40;3.88;;;;;;;25.75;33.47;100227.78;10398213;28;20107;-81
2021/09/05 12:51:02;;;;;;;6.57;4.05;;;;;;;26.04;33.96;100233.22;10397962;28;20056;-81
2021/09/05 12:56:05;;;;;;;8.15;4.32;;;;;;;26.18;33.61;100227.00;10399409;28;20170;-81
2021/09/05 13:01:07;;;;;;;5.18;3.65;;;;;;;26.26;33.19;100229.59;10398283;28;20396;-81
2021/09/05 13:06:09;;;;;;;6.00;3.75;;;;;;;26.01;32.99;100219.34;10396321;28;20515;-81
2021/09/05 13:11:12;;;;;;;5.68;3.70;;;;;;;26.12;33.75;100218.91;10399034;28;20111;-81
2021/09/05 13:16:15;;;;;;;5.53;3.72;;;;;;;26.32;33.04;100215.44;10402240;28;20085;-81
2021/09/05 13:21:18;;;;;;;7.13;4.65;;;;;;;26.39;34.14;100218.22;10418580;28;20061;-81
2021/09/05 13:26:22;;;;;;;6.07;3.80;;;;;;;26.60;32.94;100212.97;10397787;28;20083;-81
2021/09/05 13:31:28;;;;;;;6.65;4.13;;;;;;;26.66;33.06;100212.22;10397367;28;20698;-81
2021/09/05 13:36:30;;;;;;;5.50;4.28;;;;;;;26.60;32.53;100205.75;10395457;28;20058;-81
2021/09/05 13:41:32;;;;;;;7.90;3.90;;;;;;;26.90;32.34;100203.81;10396227;28;20089;-81
2021/09/05 13:46:33;;;;;;;5.03;3.70;;;;;;;26.74;32.43;100204.06;10395402;28;20108;-81
2021/09/05 13:51:35;;;;;;;5.95;3.95;;;;;;;26.67;31.58;100203.13;10396460;28;20093;-81
2021/09/05 13:56:37;;;;;;;6.80;4.15;;;;;;;26.46;31.84;100205.75;10394001;28;20093;-81
2021/09/05 14:01:39;;;;;;;6.57;4.18;;;;;;;26.64;31.99;100204.38;10395400;28;20221;-81
2021/09/05 14:06:41;;;;;;;5.80;3.95;;;;;;;26.96;30.89;100196.84;10395258;28;20151;-81
2021/09/05 14:11:44;;;;;;;5.32;3.70;;;;;;;26.97;30.21;100199.38;10394803;28;20475;-81
2021/09/05 14:16:46;;;;;;;7.50;4.10;;;;;;;26.91;30.26;100183.19;10410243;28;20088;-81
2021/09/05 14:21:48;;;;;;;7.18;4.10;;;;;;;27.07;31.35;100178.41;10394140;28;20061;-81
2021/09/05 14:26:56;;;;;;;6.05;3.75;;;;;;;27.11;30.69;100190.44;10394563;28;20123;-81
2021/09/05 14:58:24;;;;;;;6.50;3.75;;;;;;;27.00;31.91;100192.75;10394975;28;20089;-81
2021/09/05 15:04:04;;;;;;;6.30;3.90;;;;;;;27.31;31.58;100191.47;10392519;28;20519;-81
2021/09/05 15:14:14;;;;;;;6.15;4.05;;;;;;;27.30;31.00;100183.63;10393249;28;20144;-81
2021/09/05 15:19:16;;;;;;;7.15;3.60;;;;;;;27.56;31.42;100183.00;10393443;28;20069;-81
2021/09/05 15:24:18;;;;;;;5.47;3.78;;;;;;;27.59;31.89;100185.28;10392674;28;20495;-82
2021/09/05 15:56:17;;;;;;;5.53;3.72;;;;;;;27.23;31.97;100180.03;10411253;28;20058;-81
2021/09/05 16:01:34;;;;;;;6.32;3.80;;;;;;;27.24;31.81;100173.66;10400677;28;20059;-81
2021/09/05 16:17:04;;;;;;;5.07;3.83;;;;;;;26.70;32.73;100175.94;10401680;28;20056;-81
2021/09/05 16:22:11;;;;;;;6.35;3.65;;;;;;;26.40;32.51;100179.69;10399165;28;20116;-81
2021/09/05 16:27:20;;;;;;;8.13;4.28;;;;;;;26.30;33.59;100179.13;10397355;28;20092;-82
2021/09/05 16:42:50;;;;;;;8.38;4.40;;;;;;;26.58;33.85;100188.19;10397967;28;20053;-81
2021/09/05 16:47:53;;;;;;;5.47;3.67;;;;;;;26.96;33.49;100178.06;10398723;28;20127;-81
2021/09/05 16:52:59;;;;;;;7.43;3.83;;;;;;;27.20;33.87;100178.53;10396628;28;20096;-80
2021/09/05 16:58:01;;;;;;;8.20;3.80;;;;;;;26.86;34.38;100186.44;10394753;28;20149;-80
2021/09/05 17:03:03;;;;;;;5.97;3.83;;;;;;;26.36;36.07;100189.13;10397337;28;20045;-81
2021/09/05 17:08:05;;;;;;;9.65;3.90;;;;;;;25.92;37.04;100197.97;10397464;28;20061;-81
2021/09/05 17:13:07;;;;;;;5.40;3.72;;;;;;;25.51;37.60;100198.56;10396025;28;20045;-81
2021/09/05 17:18:09;;;;;;;5.93;3.70;;;;;;;25.15;38.29;100200.97;10397530;28;20178;-81
2021/09/05 17:23:10;;;;;;;7.93;3.30;;;;;;;24.94;38.78;100206.97;10397010;28;20054;-81
2021/09/05 17:28:12;;;;;;;8.25;4.90;;;;;;;24.80;39.72;100207.72;10395905;28;20502;-81
2021/09/05 17:33:14;;;;;;;9.90;5.30;;;;;;;24.51;40.53;100217.41;10396284;28;20150;-81
2021/09/05 17:38:19;;;;;;;7.93;5.22;;;;;;;24.14;41.21;100218.84;10395597;28;20053;-81
2021/09/05 17:43:21;;;;;;;8.20;5.25;;;;;;;23.89;41.96;100229.72;10396335;28;20069;-81
2021/09/05 17:48:23;;;;;;;8.43;5.18;;;;;;;23.63;42.70;100235.28;10395761;28;20057;-81
2021/09/05 17:53:24;;;;;;;8.55;5.13;;;;;;;23.30;43.49;100245.09;10396765;28;20092;-81
2021/09/05 17:58:26;;;;;;;9.98;5.40;;;;;;;22.91;44.65;100246.69;10396408;28;20148;-81
2021/09/05 18:03:28;;;;;;;7.07;5.05;;;;;;;22.48;46.05;100255.66;10395246;28;20457;-81
2021/09/05 18:08:32;;;;;;;6.60;5.35;;;;;;;22.33;46.42;100261.75;10395627;28;20131;-81
2021/09/05 18:13:34;;;;;;;7.88;5.00;;;;;;;22.03;47.20;100263.06;10396583;28;20057;-81
2021/09/05 18:18:36;;;;;;;8.95;6.03;;;;;;;21.92;47.91;100271.28;10399097;28;20103;-80
2021/09/05 18:23:37;;;;;;;6.57;5.30;;;;;;;21.62;48.21;100277.06;10411018;28;20057;-80
2021/09/05 18:28:39;;;;;;;9.25;5.43;;;;;;;21.39;49.03;100295.31;10417359;28;20115;-80
2021/09/05 18:33:41;;;;;;;9.55;5.60;;;;;;;21.26;49.43;100293.97;10394718;28;20046;-81
2021/09/05 18:38:43;;;;;;;7.40;5.90;;;;;;;21.04;50.43;100295.25;10394859;28;20112;-80
2021/09/05 18:43:45;;;;;;;10.77;6.32;;;;;;;20.81;51.07;100302.78;10395956;28;20081;-81
2021/09/05 18:48:47;;;;;;;10.55;6.03;;;;;;;20.54;52.00;100307.22;10393604;28;20071;-81
2021/09/05 18:53:49;;;;;;;7.68;5.85;;;;;;;20.32;52.49;100316.38;10387561;28;20850;-80
2021/09/05 18:58:50;;;;;;;9.40;5.75;;;;;;;20.33;52.81;100317.22;10393698;28;20097;-81
2021/09/05 19:03:52;;;;;;;10.02;6.43;;;;;;;20.27;52.50;100315.97;10392103;28;20383;-81
2021/09/05 19:08:54;;;;;;;7.13;6.13;;;;;;;20.07;53.16;100324.97;10394062;28;20062;-81
2021/09/05 19:13:56;;;;;;;9.23;6.18;;;;;;;19.91;53.77;100327.38;10395472;28;20057;-81
2021/09/05 19:18:57;;;;;;;9.20;6.80;;;;;;;19.71;54.17;100339.75;10395405;28;20080;-81
2021/09/05 19:23:59;;;;;;;13.85;6.82;;;;;;;19.32;55.01;100346.84;10400159;28;20495;-81
2021/09/05 19:29:01;;;;;;;8.55;6.63;;;;;;;18.91;55.72;100354.13;10399961;28;20148;-81
2021/09/05 19:34:03;;;;;;;9.95;6.57;;;;;;;18.80;56.49;100347.13;10400914;28;20558;-81
2021/09/05 19:39:04;;;;;;;14.30;6.80;;;;;;;18.98;56.16;100356.09;10402158;28;20162;-82
2021/09/05 19:44:06;;;;;;;11.60;6.68;;;;;;;19.01;56.18;100366.41;10401045;28;20091;-82
2021/09/05 19:49:08;;;;;;;7.85;6.70;;;;;;;18.96;56.48;100357.19;10399764;28;20057;-82
2021/09/05 19:54:10;;;;;;;10.07;6.22;;;;;;;18.82;56.91;100369.00;10399399;28;20152;-83
2021/09/05 19:59:12;;;;;;;11.85;7.05;;;;;;;18.75;56.66;100369.69;10401692;28;20053;-82
2021/09/05 20:04:14;;;;;;;11.65;7.47;;;;;;;18.46;57.36;100386.25;10401283;28;20053;-82
2021/09/05 20:09:16;;;;;;;11.15;6.97;;;;;;;18.44;57.71;100385.53;10398936;28;20160;-82
2021/09/05 20:14:17;;;;;;;10.52;7.25;;;;;;;18.41;57.87;100384.97;10401395;28;20097;-82
2021/09/05 20:19:20;;;;;;;10.57;6.88;;;;;;;18.39;58.26;100390.41;10398270;28;20089;-82
2021/09/05 20:24:22;;;;;;;9.95;6.90;;;;;;;18.30;58.30;100398.31;10400649;28;20081;-83
2021/09/05 20:29:24;;;;;;;11.13;7.20;;;;;;;18.24;58.41;100401.47;10397075;28;20089;-82
2021/09/05 20:34:26;;;;;;;10.32;6.80;;;;;;;18.15;58.43;100395.09;10399846;28;20308;-82
2021/09/05 20:39:28;;;;;;;9.25;7.07;;;;;;;17.99;58.72;100407.09;10399507;28;20129;-82
2021/09/05 20:44:29;;;;;;;12.57;7.30;;;;;;;17.98;59.02;100400.94;10399356;28;20136;-82
2021/09/05 20:49:31;;;;;;;9.95;7.57;;;;;;;17.83;59.24;100408.34;10399845;28;20054;-83
2021/09/05 20:54:33;;;;;;;11.20;7.57;;;;;;;17.78;59.40;100409.69;10405421;28;20054;-82
2021/09/05 20:59:35;;;;;;;13.05;8.13;;;;;;;17.67;59.56;100402.63;10423200;28;20049;-82
2021/09/05 21:04:37;;;;;;;10.15;7.85;;;;;;;17.14;60.34;100403.41;10404233;28;20499;-82
2021/09/05 21:09:39;;;;;;;9.90;8.07;;;;;;;17.11;60.50;100408.97;10400577;28;20103;-82
2021/09/05 21:14:40;;;;;;;10.98;7.38;;;;;;;17.22;60.37;100405.47;10397186;28;20084;-81
2021/09/05 21:19:43;;;;;;;11.30;7.82;;;;;;;17.20;60.29;100421.44;10395813;28;20144;-81
2021/09/05 21:24:44;;;;;;;14.30;7.85;;;;;;;17.06;60.75;100421.69;10394791;28;20529;-81
2021/09/05 21:29:46;;;;;;;13.20;8.85;;;;;;;16.74;60.64;100439.22;10396726;28;20061;-81
2021/09/05 21:34:48;;;;;;;11.07;8.02;;;;;;;16.36;61.83;100436.00;10396569;28;20132;-82
2021/09/05 21:39:50;;;;;;;13.07;7.38;;;;;;;16.62;61.90;100434.88;10399318;28;20103;-81
2021/09/05 21:44:52;;;;;;;10.55;7.25;;;;;;;16.80;61.39;100430.81;10392525;28;20473;-82
2021/09/05 21:49:53;;;;;;;10.00;8.50;;;;;;;16.74;61.06;100440.06;10391093;28;20097;-82
2021/09/05 21:54:57;;;;;;;11.93;8.40;;;;;;;16.55;61.40;100438.97;10395496;28;20147;-81
2021/09/05 21:59:58;;;;;;;9.15;7.63;;;;;;;16.55;61.74;100441.59;10394784;28;20503;-82
2021/09/05 22:05:00;;;;;;;10.50;7.85;;;;;;;16.58;61.54;100433.44;10394277;28;20695;-82
2021/09/05 22:10:04;;;;;;;9.75;7.53;;;;;;;16.60;61.53;100439.44;10395766;28;20068;-82
2021/09/05 22:15:07;;;;;;;11.32;8.25;;;;;;;16.53;61.67;100440.88;10391931;28;20053;-81
2021/09/05 22:20:10;;;;;;;11.45;8.45;;;;;;;16.41;61.76;100433.81;10395370;28;20084;-82
2021/09/05 22:25:12;;;;;;;10.18;7.57;;;;;;;16.42;61.83;100456.66;10393342;28;20247;-81
2021/09/05 22:30:14;;;;;;;13.32;8.18;;;;;;;16.40;61.61;100459.41;10393726;28;20478;-81
2021/09/05 22:35:16;;;;;;;14.20;8.90;;;;;;;16.30;61.96;100454.94;10393398;28;20569;-81
2021/09/05 22:40:19;;;;;;;11.90;8.35;;;;;;;16.20;62.18;100460.06;10393496;28;20057;-81
2021/09/05 22:45:20;;;;;;;13.93;8.05;;;;;;;16.18;62.39;100468.06;10408796;28;20049;-81
2021/09/05 22:50:22;;;;;;;12.32;8.48;;;;;;;16.10;62.31;100461.72;10393088;28;20058;-81
2021/09/05 22:55:25;;;;;;;12.52;8.23;;;;;;;15.99;62.31;100470.41;10398942;28;20077;-81
2021/09/05 23:00:27;;;;;;;18.45;9.23;;;;;;;15.93;62.51;100467.38;10403723;28;20156;-81
2021/09/05 23:05:30;;;;;;;14.40;8.02;;;;;;;15.91;62.49;100471.91;10402372;28;20062;-81
2021/09/05 23:10:32;;;;;;;13.40;8.77;;;;;;;15.84;62.77;100470.66;10401753;28;20147;-81
2021/09/05 23:15:33;;;;;;;13.05;8.30;;;;;;;15.82;62.89;100470.78;10401070;28;20065;-81
2021/09/05 23:20:35;;;;;;;12.55;8.95;;;;;;;15.80;62.61;100477.97;10402433;28;20135;-81
2021/09/05 23:25:37;;;;;;;11.57;8.45;;;;;;;15.69;62.72;100477.91;10406143;28;20238;-81
2021/09/05 23:30:39;;;;;;;12.05;7.82;;;;;;;15.61;63.11;100474.16;10427670;28;20041;-82
2021/09/05 23:35:41;;;;;;;11.50;8.05;;;;;;;15.58;62.99;100485.75;10411318;28;20300;-81
2021/09/05 23:40:42;;;;;;;14.32;8.57;;;;;;;15.54;63.00;100486.06;10400708;28;20076;-81
2021/09/05 23:45:44;;;;;;;11.95;9.20;;;;;;;15.39;63.41;100483.53;10402761;28;20058;-81
2021/09/05 23:50:46;;;;;;;11.30;8.57;;;;;;;15.34;63.36;100487.47;10400007;28;20525;-81
2021/09/05 23:55:48;;;;;;;10.27;8.15;;;;;;;15.29;63.42;100485.16;10399526;28;20404;-81
